Time;durP1;ratioP1;P1;durP2;ratioP2;P2;SDS_P1;SDS_P2;PMS_P1;PMS_P2;Temp;Humidity;BMP_temperature;BMP_pressure;BME280_temperature;BME280_humidity;BME280_pressure;Samples;Min_cycle;Max_cycle;Signal;HPM_P1;HPM_P2
2023/03/23 00:01:22;;;;;;;11.98;3.42;;;10.90;99.90;;;9.71;89.23;100026.50;5044460;28;20037;-81
2023/03/23 00:03:51;;;;;;;11.73;3.67;;;10.90;99.90;;;9.77;88.93;100028.81;4995870;28;20036;-78
2023/03/23 00:06:26;;;;;;;8.48;3.80;;;10.90;99.90;;;9.80;88.70;100029.47;5049059;28;20032;-78
2023/03/23 00:08:59;;;;;;;9.07;3.65;;;11.00;99.90;;;9.84;88.63;100038.88;4988745;28;20520;-77
2023/03/23 00:11:29;;;;;;;8.30;3.53;;;11.00;99.90;;;9.85;88.73;100037.13;5033194;28;20029;-78
2023/03/23 00:13:57;;;;;;;6.03;3.35;;;11.00;99.90;;;9.88;88.10;100034.31;5047770;28;20044;-78
2023/03/23 00:16:31;;;;;;;11.02;3.72;;;11.10;99.90;;;9.91;88.20;100028.88;5042425;28;20040;-78
2023/03/23 00:19:08;;;;;;;9.02;3.47;;;11.10;99.90;;;9.94;87.39;100022.63;5024101;28;20039;-78
2023/03/23 00:21:38;;;;;;;11.88;4.05;;;11.10;99.90;;;9.96;88.00;100023.41;5022092;28;20486;-78
2023/03/23 00:24:08;;;;;;;10.68;3.67;;;11.10;99.90;;;9.99;87.65;100015.31;5046576;28;20070;-79
2023/03/23 00:26:42;;;;;;;10.60;3.47;;;11.10;99.90;;;9.97;87.85;100014.56;5037929;28;20094;-79
2023/03/23 00:29:18;;;;;;;10.55;3.67;;;11.20;99.90;;;10.00;87.16;100009.13;5026272;28;20044;-78
2023/03/23 00:31:48;;;;;;;8.32;3.00;;;11.10;99.90;;;10.00;87.71;99993.34;5017162;28;20353;-78
2023/03/23 00:34:25;;;;;;;9.10;3.58;;;11.20;99.90;;;10.05;87.39;99993.94;5035743;28;20081;-79
2023/03/23 00:36:56;;;;;;;8.38;3.63;;;11.20;99.90;;;10.06;87.22;99979.84;5018622;28;20055;-79
2023/03/23 00:39:27;;;;;;;9.00;3.40;;;11.20;99.90;;;10.03;87.64;99987.91;5009444;28;20435;-78
2023/03/23 00:42:00;;;;;;;8.45;3.70;;;11.20;99.90;;;10.01;87.21;99985.38;5051254;28;20047;-78
2023/03/23 00:44:31;;;;;;;9.27;3.58;;;11.20;99.90;;;10.01;87.76;99981.91;5046627;28;20036;-79
2023/03/23 00:46:58;;;;;;;9.57;3.90;;;11.20;99.90;;;9.99;87.46;99976.72;5030296;28;20032;-79
2023/03/23 00:49:25;;;;;;;9.63;3.83;;;11.20;99.90;;;10.00;87.73;99983.69;5019746;28;20033;-78
2023/03/23 00:51:57;;;;;;;11.27;3.50;;;11.30;99.90;;;9.99;87.31;99981.97;5018448;28;20037;-78
2023/03/23 00:54:25;;;;;;;10.88;3.63;;;11.30;99.90;;;10.00;87.70;99978.44;5006042;28;20044;-79
2023/03/23 00:56:51;;;;;;;8.75;3.30;;;11.30;99.90;;;10.06;87.26;99966.69;5028378;28;20409;-78
2023/03/23 00:59:18;;;;;;;11.23;3.55;;;11.30;99.90;;;10.12;87.17;99973.41;5055341;28;20051;-78
2023/03/23 01:01:53;;;;;;;7.65;3.28;;;11.40;99.90;;;10.14;87.04;99975.00;5034674;28;20036;-78
2023/03/23 01:04:21;;;;;;;8.07;3.22;;;11.30;99.90;;;10.17;87.08;99961.69;5023014;28;20041;-78
2023/03/23 01:06:57;;;;;;;6.95;4.07;;;11.40;99.90;;;10.21;86.87;99959.72;5019970;28;20194;-79
2023/03/23 01:09:23;;;;;;;9.50;3.95;;;11.40;99.90;;;10.21;87.08;99946.56;5041505;28;20374;-79
2023/03/23 01:11:55;;;;;;;8.43;3.65;;;11.50;99.90;;;10.23;86.91;99937.63;5042083;28;20038;-78
2023/03/23 01:14:23;;;;;;;9.73;3.47;;;11.50;99.90;;;10.26;86.66;99937.47;5001325;28;20040;-78
2023/03/23 01:16:50;;;;;;;11.10;3.72;;;11.50;99.90;;;10.27;87.16;99939.16;4984979;28;20219;-78
2023/03/23 01:19:15;;;;;;;10.50;3.80;;;11.50;99.90;;;10.29;86.82;99944.38;4999419;28;20037;-78
2023/03/23 01:21:41;;;;;;;7.93;2.95;;;11.50;99.90;;;10.30;86.87;99937.31;5010687;28;20087;-78
2023/03/23 01:24:07;;;;;;;10.07;3.67;;;11.50;99.90;;;10.33;87.26;99951.16;5018993;28;20058;-79
2023/03/23 01:26:42;;;;;;;8.07;3.50;;;11.50;99.90;;;10.30;86.89;99946.06;5036164;28;20056;-78
2023/03/23 01:29:08;;;;;;;16.95;4.00;;;11.50;99.90;;;10.30;87.37;99948.69;4962253;28;20076;-77
2023/03/23 01:31:36;;;;;;;8.55;3.72;;;11.50;99.90;;;10.36;87.41;99947.50;5039135;28;20524;-78
2023/03/23 01:34:10;;;;;;;16.00;3.60;;;11.50;99.90;;;10.40;87.23;99943.75;5033908;28;20052;-79
2023/03/23 01:36:36;;;;;;;10.18;3.90;;;11.60;99.90;;;10.35;87.08;99944.03;5032761;28;20037;-78
2023/03/23 01:39:12;;;;;;;7.63;3.50;;;11.50;99.90;;;10.33;87.30;99943.25;5035394;28;20036;-78
2023/03/23 01:41:40;;;;;;;9.95;3.47;;;11.50;99.90;;;10.32;87.19;99936.28;4977193;28;20053;-77
2023/03/23 01:44:30;;;;;;;7.65;3.70;;;11.50;99.90;;;10.36;87.34;99932.53;5016930;28;20109;-78
2023/03/23 01:46:59;;;;;;;8.20;3.95;;;11.50;99.90;;;10.33;88.14;99932.75;5021851;28;20039;-78
2023/03/23 01:49:31;;;;;;;10.02;3.65;;;11.50;99.90;;;10.29;88.40;99932.97;5014932;28;20036;-78
2023/03/23 01:52:06;;;;;;;8.88;4.03;;;11.50;99.90;;;10.28;88.66;99934.78;5039603;28;20028;-78
2023/03/23 01:54:36;;;;;;;12.35;4.20;;;11.50;99.90;;;10.24;89.16;99928.00;5031636;28;20104;-78
2023/03/23 01:57:21;;;;;;;13.43;4.13;;;11.40;99.90;;;10.24;89.73;99928.00;5016820;28;20055;-79
2023/03/23 01:59:51;;;;;;;9.25;4.00;;;11.40;99.90;;;10.17;90.20;99929.25;5050454;28;20752;-79
2023/03/23 02:02:24;;;;;;;11.25;4.35;;;11.30;99.90;;;10.14;90.77;99934.69;5030907;28;20035;-80
2023/03/23 02:04:51;;;;;;;13.02;4.40;;;11.40;99.90;;;10.07;91.87;99932.41;5030985;28;20037;-79
2023/03/23 02:07:20;;;;;;;9.27;4.22;;;11.30;99.90;;;10.03;92.86;99932.69;5011429;28;20024;-80
2023/03/23 02:09:53;;;;;;;9.80;4.30;;;11.30;99.90;;;9.98;93.36;99927.69;5030536;28;20041;-80
2023/03/23 02:12:19;;;;;;;10.52;4.10;;;11.20;99.90;;;9.91;93.32;99930.75;4994892;28;20044;-80
2023/03/23 02:14:45;;;;;;;9.52;4.15;;;11.20;99.90;;;9.88;94.03;99933.56;4988132;28;20033;-80
2023/03/23 02:17:41;;;;;;;10.32;4.45;;;11.20;99.90;;;9.86;94.48;99936.25;5029549;28;20498;-80
2023/03/23 02:20:38;;;;;;;8.32;4.03;;;11.10;99.90;;;9.84;95.42;99940.75;4990212;28;20033;-79
2023/03/23 02:23:19;;;;;;;16.77;5.13;;;11.10;99.90;;;9.81;96.11;99936.53;5020119;28;20032;-79
2023/03/23 02:26:21;;;;;;;15.25;4.55;;;11.10;99.90;;;9.80;96.59;99933.97;5030461;28;20035;-80
2023/03/23 02:29:22;;;;;;;14.05;5.32;;;11.10;99.90;;;9.80;96.84;99926.94;5040009;28;20035;-80
2023/03/23 02:32:19;;;;;;;11.05;4.90;;;11.00;99.90;;;9.78;97.59;99922.69;5046275;28;20033;-80
2023/03/23 02:34:58;;;;;;;15.23;5.47;;;11.00;99.90;;;9.77;98.38;99919.22;5003550;28;20040;-79
2023/03/23 02:37:50;;;;;;;16.10;5.20;;;11.00;99.90;;;9.75;98.54;99912.38;5002709;28;20054;-79
2023/03/23 02:40:24;;;;;;;9.82;5.22;;;11.00;99.90;;;9.74;98.98;99908.91;4981878;28;20036;-79
2023/03/23 02:42:54;;;;;;;11.40;5.05;;;11.00;99.90;;;9.69;99.05;99904.81;4986365;28;20032;-79
2023/03/23 02:45:23;;;;;;;11.18;5.97;;;10.90;99.90;;;9.70;99.80;99902.13;4978414;28;20036;-78
2023/03/23 02:48:00;;;;;;;14.20;5.63;;;10.90;99.90;;;9.65;99.88;99899.75;5011101;28;20833;-79
2023/03/23 02:50:30;;;;;;;10.48;5.03;;;10.90;99.90;;;9.60;100.00;99885.16;5033241;28;20045;-79
2023/03/23 02:53:07;;;;;;;11.85;5.68;;;10.90;99.90;;;9.60;100.00;99893.03;5011053;28;20028;-79
2023/03/23 02:55:34;;;;;;;11.60;6.18;;;10.80;99.90;;;9.56;100.00;99889.72;4999154;28;20059;-79
2023/03/23 02:58:03;;;;;;;11.82;5.63;;;10.80;99.90;;;9.51;100.00;99889.16;5036434;28;20033;-79
2023/03/23 03:00:31;;;;;;;12.70;6.07;;;10.80;99.90;;;9.49;100.00;99880.50;5039993;28;20032;-79
2023/03/23 03:02:57;;;;;;;14.93;6.45;;;10.70;99.90;;;9.46;100.00;99878.06;5018081;28;20520;-79
2023/03/23 03:05:52;;;;;;;13.02;6.07;;;10.70;99.90;;;9.45;100.00;99876.34;5009846;28;20101;-78
2023/03/23 03:08:48;;;;;;;12.52;5.82;;;10.70;99.90;;;9.45;100.00;99878.97;5041585;28;20554;-79
2023/03/23 03:11:18;;;;;;;11.73;6.45;;;10.70;99.90;;;9.40;100.00;99873.97;5033382;28;20545;-77
2023/03/23 03:13:53;;;;;;;12.35;5.85;;;10.70;99.90;;;9.37;100.00;99873.28;4978952;28;20044;-79
2023/03/23 03:16:52;;;;;;;14.57;6.32;;;10.60;99.90;;;9.35;100.00;99868.13;5028580;28;20550;-78
2023/03/23 03:19:32;;;;;;;20.33;6.40;;;10.60;99.90;;;9.34;100.00;99874.31;5030222;28;20664;-78
2023/03/23 03:21:59;;;;;;;16.67;6.57;;;10.60;99.90;;;9.36;100.00;99875.06;5046979;23;20107;-79
2023/03/23 03:24:32;;;;;;;18.23;6.40;;;10.60;99.90;;;9.37;100.00;99883.78;5012263;28;20130;-79
2023/03/23 03:27:04;;;;;;;18.05;6.80;;;10.60;99.90;;;9.36;100.00;99882.09;5011089;28;20103;-79
2023/03/23 03:29:37;;;;;;;16.42;6.97;;;10.60;99.90;;;9.37;100.00;99891.66;5023088;28;20041;-79
2023/03/23 03:32:08;;;;;;;15.98;6.88;;;10.60;99.90;;;9.33;100.00;99888.38;5033216;28;20029;-78
2023/03/23 03:34:43;;;;;;;14.07;6.38;;;10.60;99.90;;;9.30;100.00;99899.03;5015846;28;20610;-79
2023/03/23 03:37:11;;;;;;;16.13;6.32;;;10.60;99.90;;;9.27;100.00;99893.97;5007130;28;20049;-80
2023/03/23 03:39:41;;;;;;;21.48;6.50;;;10.60;99.90;;;9.28;100.00;99879.03;5039905;28;20036;-79
2023/03/23 03:42:07;;;;;;;14.57;6.80;;;10.60;99.90;;;9.28;100.00;99871.16;4992073;23;20041;-79
2023/03/23 03:44:34;;;;;;;20.20;6.78;;;10.60;99.90;;;9.23;100.00;99872.25;4950961;28;20099;-80
2023/03/23 03:47:00;;;;;;;15.77;6.03;;;10.60;99.90;;;9.22;100.00;99870.59;4982508;28;20479;-78
2023/03/23 03:49:26;;;;;;;14.63;6.50;;;10.60;99.90;;;9.26;100.00;99876.50;4984232;28;20185;-79
2023/03/23 03:51:52;;;;;;;13.95;6.80;;;10.60;99.90;;;9.23;100.00;99876.69;5022494;28;20033;-79
2023/03/23 03:54:40;;;;;;;10.43;6.13;;;10.60;99.90;;;9.24;100.00;99878.34;4979187;28;20029;-79
2023/03/23 03:57:06;;;;;;;11.85;6.43;;;10.60;99.90;;;9.23;100.00;99866.16;4936200;28;20029;-79
2023/03/23 03:59:32;;;;;;;14.68;6.47;;;10.50;99.90;;;9.26;100.00;99866.00;4953697;28;20047;-79
2023/03/23 04:02:40;;;;;;;17.25;7.10;;;10.50;99.90;;;9.21;100.00;99865.41;4971100;23;20038;-80
2023/03/23 04:05:08;;;;;;;16.73;6.82;;;10.50;99.90;;;9.18;100.00;99855.09;4976628;28;20050;-80
2023/03/23 04:07:37;;;;;;;14.45;6.53;;;10.50;99.90;;;9.16;100.00;99855.16;4983612;28;20063;-79
2023/03/23 04:10:05;;;;;;;20.70;7.68;;;10.50;99.90;;;9.18;100.00;99855.91;5002807;28;20041;-79
2023/03/23 04:12:31;;;;;;;15.00;6.95;;;10.50;99.90;;;9.18;100.00;99860.34;4979652;28;20501;-78
2023/03/23 04:14:57;;;;;;;14.68;7.15;;;10.50;99.90;;;9.19;100.00;99873.34;4942204;28;20178;-79
2023/03/23 04:17:25;;;;;;;15.65;6.78;;;10.50;99.90;;;9.15;100.00;99849.97;4979409;28;20034;-78
2023/03/23 04:19:56;;;;;;;17.33;6.40;;;10.40;99.90;;;9.14;100.00;99846.50;4978631;28;20037;-79
2023/03/23 04:22:29;;;;;;;15.25;6.60;;;10.40;99.90;;;9.11;100.00;99836.16;5006224;23;20041;-80
2023/03/23 04:25:03;;;;;;;11.88;6.72;;;10.50;99.90;;;9.14;100.00;99837.78;4948204;28;20104;-78
2023/03/23 04:27:29;;;;;;;18.23;8.20;;;10.50;99.90;;;9.14;100.00;99816.78;4959258;28;20040;-78
2023/03/23 04:29:57;;;;;;;16.13;7.30;;;10.40;99.90;;;9.12;100.00;99806.34;4961090;28;20427;-79
2023/03/23 04:32:31;;;;;;;14.88;7.47;;;10.40;99.90;;;9.16;100.00;99813.13;4925161;28;20076;-78
2023/03/23 04:35:00;;;;;;;14.77;6.75;;;10.40;99.90;;;9.18;100.00;99827.03;4949142;28;20681;-78
2023/03/23 04:37:28;;;;;;;17.77;6.72;;;10.40;99.90;;;9.16;100.00;99842.03;4978042;28;20034;-80
2023/03/23 04:40:00;;;;;;;18.83;7.47;;;10.40;99.90;;;9.09;100.00;99838.00;4934695;28;20526;-79
2023/03/23 04:42:31;;;;;;;18.83;6.90;;;10.40;99.90;;;9.03;100.00;99822.63;4935025;28;20085;-78
2023/03/23 04:45:03;;;;;;;16.15;7.05;;;10.40;99.90;;;9.02;100.00;99820.91;4956111;28;20105;-79
2023/03/23 04:47:39;;;;;;;16.88;6.90;;;10.40;99.90;;;9.01;100.00;99801.69;4961518;28;20495;-79
2023/03/23 04:50:12;;;;;;;16.17;7.30;;;10.30;99.90;;;9.03;100.00;99801.63;4908270;28;20042;-79
2023/03/23 04:52:44;;;;;;;16.80;7.18;;;10.40;99.90;;;9.05;100.00;99802.38;4969911;28;20102;-79
2023/03/23 04:55:11;;;;;;;15.60;7.10;;;10.40;99.90;;;9.04;100.00;99804.13;4964898;28;20037;-79
2023/03/23 04:57:38;;;;;;;17.33;6.93;;;10.40;99.90;;;9.01;100.00;99804.31;4980274;28;20275;-79
2023/03/23 05:00:08;;;;;;;17.40;7.70;;;10.40;99.90;;;9.06;100.00;99790.09;4987297;28;20068;-78
2023/03/23 05:02:39;;;;;;;13.77;6.95;;;10.40;99.90;;;9.03;100.00;99785.84;4988267;23;20045;-79
2023/03/23 05:05:11;;;;;;;15.55;6.90;;;10.40;99.90;;;9.04;100.00;99801.50;5027649;28;20532;-79
2023/03/23 05:07:41;;;;;;;14.25;6.80;;;10.40;99.90;;;9.01;100.00;99808.72;4986037;28;20071;-79
2023/03/23 05:10:10;;;;;;;14.57;7.40;;;10.30;99.90;;;8.98;100.00;99806.25;4988095;28;20044;-79
2023/03/23 05:12:37;;;;;;;13.75;6.63;;;10.30;99.90;;;8.99;100.00;99805.34;5012872;28;20037;-79
2023/03/23 05:17:43;;;;;;;13.35;6.70;;;;;;;8.96;100.00;99811.59;5020376;28;20054;-83
2023/03/23 05:20:33;;;;;;;12.90;6.30;;;10.30;99.90;;;8.99;100.00;99815.84;5054094;28;20036;-83
2023/03/23 05:26:33;;;;;;;;;;;;;;;;;;;;;
2023/03/23 05:29:05;;;;;;;14.43;6.72;;;10.30;99.90;;;8.96;100.00;99798.47;4841564;28;20653;-84
2023/03/23 05:31:34;;;;;;;16.90;7.25;;;10.30;99.90;;;8.97;100.00;99797.53;4892279;29;20043;-82
2023/03/23 05:34:41;;;;;;;13.43;6.60;;;;;;;8.98;100.00;99791.34;4897920;28;20036;-84
2023/03/23 05:38:05;;;;;;;;;;;;;;;;;;;;;
2023/03/23 05:40:34;;;;;;;14.52;7.13;;;;;;;8.96;100.00;99779.22;4960735;28;20163;-83
2023/03/23 05:43:03;;;;;;;16.45;7.25;;;;;;;8.99;100.00;99784.31;4936960;28;20069;-83
2023/03/23 05:45:54;;;;;;;14.18;7.93;;;10.40;99.90;;;9.02;100.00;99792.88;4892805;28;20051;-83
2023/03/23 05:56:30;;;;;;;;;;;;;;;;;;;;;
2023/03/23 06:00:14;;;;;;;13.40;7.22;;;10.50;99.90;;;9.14;100.00;99783.47;4882064;29;20048;-82
2023/03/23 06:04:04;;;;;;;14.38;7.38;;;10.50;99.90;;;9.18;100.00;99782.38;4841541;28;20049;-83
2023/03/23 06:07:14;;;;;;;;;;;10.50;99.90;;;9.14;100.00;99790.50;4814425;29;20045;-82
2023/03/23 06:13:26;;;;;;;14.95;8.40;;;10.50;99.90;;;9.19;100.00;99773.56;4772846;29;20045;-82
2023/03/23 06:16:03;;;;;;;14.50;7.60;;;10.60;99.90;;;9.23;100.00;99766.34;4808797;29;20073;-82
2023/03/23 06:18:43;;;;;;;15.32;7.68;;;;;;;9.27;100.00;99769.66;4819620;29;20038;-82
2023/03/23 06:21:35;;;;;;;;;;;;;;;;;;;;;
2023/03/23 06:24:23;;;;;;;12.90;7.93;;;;;;;9.36;100.00;99779.66;4801923;29;20057;-82
2023/03/23 06:27:24;;;;;;;;;;;;;;;;;;;;;
2023/03/23 06:30:44;;;;;;;13.98;8.25;;;;;;;9.44;100.00;99757.25;4847862;29;20337;-83
2023/03/23 06:37:53;;;;;;;;;;;;;;;;;;;;;
2023/03/23 06:42:03;;;;;;;;;;;;;;;;;;;;;
2023/03/23 06:45:54;;;;;;;17.73;7.78;;;10.80;99.90;;;9.52;100.00;99748.91;4708209;29;20308;-82
2023/03/23 06:48:52;;;;;;;11.88;7.25;;;10.90;99.90;;;9.56;100.00;99762.72;4760938;29;20040;-82
2023/03/23 06:51:33;;;;;;;13.88;7.50;;;;;;;9.61;100.00;99776.44;4696553;29;20043;-83
2023/03/23 06:54:24;;;;;;;13.43;7.22;;;;;;;9.67;100.00;99789.25;4752264;29;20516;-84
2023/03/23 06:57:22;;;;;;;12.43;7.35;;;10.90;99.90;;;9.73;100.00;99791.50;4777877;29;20065;-82
2023/03/23 07:07:04;;;;;;;13.93;7.18;;;;;;;9.98;100.00;99795.34;4826120;29;20073;-82
2023/03/23 07:10:13;;;;;;;14.20;6.43;;;;;;;10.00;100.00;99794.31;4793718;29;20137;-82
2023/03/23 07:13:54;;;;;;;12.35;6.70;;;11.30;99.90;;;10.07;100.00;99790.38;4813462;29;20046;-82
2023/03/23 07:16:36;;;;;;;13.77;6.38;;;11.40;99.90;;;10.14;100.00;99805.81;4798385;29;21672;-82
2023/03/23 07:19:35;;;;;;;15.65;5.93;;;11.40;99.90;;;10.20;100.00;99793.13;4786498;29;20050;-82
2023/03/23 07:23:12;;;;;;;10.70;6.50;;;11.50;99.90;;;10.27;100.00;99794.44;4755322;29;20066;-83
2023/03/23 07:27:12;;;;;;;11.30;6.55;;;11.60;99.90;;;10.31;100.00;99792.53;4721141;29;20055;-81
2023/03/23 07:29:25;;;;;;;11.38;6.10;;;11.60;99.90;;;10.33;100.00;99801.16;4707239;29;20523;-81
2023/03/23 07:35:34;;;;;;;10.75;5.70;;;;;;;10.34;100.00;99780.97;4714877;29;20333;-81
2023/03/23 07:42:24;;;;;;;;;;;;;;;;;;;;;
2023/03/23 07:44:56;;;;;;;13.93;5.82;;;;;;;10.34;100.00;99787.06;4792187;29;20635;-82
2023/03/23 07:47:34;;;;;;;10.05;5.38;;;11.60;99.90;;;10.42;100.00;99800.59;4830842;29;20045;-82
2023/03/23 07:50:32;;;;;;;10.70;5.18;;;;;;;10.50;100.00;99797.53;4861614;29;20106;-82
2023/03/23 07:53:24;;;;;;;8.70;5.00;;;;;;;10.60;100.00;99792.53;4903390;28;20033;-82
2023/03/23 08:00:24;;;;;;;13.07;5.13;;;;;;;10.81;100.00;99803.53;4730528;29;20044;-82
2023/03/23 08:04:02;;;;;;;8.90;5.03;;;12.00;99.90;;;10.85;100.00;99805.88;4789978;29;20132;-83
2023/03/23 08:07:02;;;;;;;9.32;5.15;;;;;;;10.88;100.00;99794.28;4880477;29;20048;-82
2023/03/23 08:09:54;;;;;;;15.20;5.28;;;12.20;99.90;;;11.00;100.00;99795.31;4898711;29;20056;-83
2023/03/23 08:12:34;;;;;;;10.88;5.13;;;;;;;11.13;100.00;99793.59;4874898;29;20046;-82
2023/03/23 08:15:47;;;;;;;;;;;;;;;;;;;;;
2023/03/23 08:19:13;;;;;;;9.98;4.95;;;;;;;11.26;100.00;99806.84;4781647;29;20052;-83
2023/03/23 08:22:42;;;;;;;9.90;4.40;;;12.50;99.90;;;11.38;100.00;99813.97;4781940;29;20088;-83
2023/03/23 08:25:25;;;;;;;11.30;4.18;;;12.60;99.90;;;11.45;100.00;99811.78;4750302;29;20056;-82
2023/03/23 08:28:23;;;;;;;8.63;3.75;;;12.60;99.90;;;11.42;100.00;99810.16;4867800;28;20048;-80
2023/03/23 08:31:43;;;;;;;6.97;3.78;;;12.60;99.90;;;11.55;100.00;99809.38;4824435;29;20423;-82
2023/03/23 08:34:44;;;;;;;7.90;4.22;;;12.80;99.90;;;11.85;100.00;99822.31;4804373;29;20069;-81
2023/03/23 08:37:24;;;;;;;8.90;4.07;;;;;;;12.10;100.00;99821.56;4773187;29;20102;-82
2023/03/23 08:40:22;;;;;;;7.65;3.47;;;;;;;12.30;98.38;99821.06;4773527;29;20054;-81
2023/03/23 08:43:25;;;;;;;;;;;;;;;;;;;;;
2023/03/23 08:46:08;;;;;;;;;;;;;;;;;;;;;
2023/03/23 08:49:11;;;;;;;6.03;3.50;;;;;;;12.58;94.33;99813.03;4861929;29;20047;-81
2023/03/23 08:52:03;;;;;;;6.30;3.60;;;;;;;12.76;93.52;99822.31;4872617;28;20043;-81
2023/03/23 08:55:12;;;;;;;8.15;3.20;;;13.80;99.90;;;12.98;92.32;99820.78;4863116;29;20044;-82
2023/03/23 08:58:10;;;;;;;9.02;3.33;;;;;;;13.26;91.18;99833.75;4852449;28;20047;-80
2023/03/23 09:01:16;;;;;;;;;;;;;;;;;;;;;
2023/03/23 09:07:34;;;;;;;5.63;2.92;;;15.10;99.90;;;14.89;82.95;99824.19;4909420;28;20419;-82
2023/03/23 09:10:24;;;;;;;6.45;2.90;;;;;;;15.60;80.09;99826.47;4835171;29;20037;-81
2023/03/23 09:12:54;;;;;;;4.78;2.53;;;;;;;15.83;78.53;99823.75;4847974;29;20045;-81
2023/03/23 09:22:15;;;;;;;10.20;2.75;;;;;;;15.47;76.92;99817.84;4887068;28;20043;-81
2023/03/23 09:25:21;;;;;;;;;;;;;;;;;;;;;
2023/03/23 09:28:56;;;;;;;3.85;2.40;;;16.20;99.90;;;14.85;77.36;99790.09;4955814;28;20375;-81
2023/03/23 09:32:23;;;;;;;9.82;2.60;;;;;;;14.74;78.35;99810.34;4884587;29;20039;-82
2023/03/23 09:35:34;;;;;;;7.28;2.58;;;;;;;14.34;78.86;99809.91;4887347;29;20067;-81
2023/03/23 09:38:43;;;;;;;8.13;3.08;;;15.70;99.90;;;14.85;79.05;99809.50;4863142;29;20052;-80
2023/03/23 09:42:55;;;;;;;;;;;;;;;;;;;;;
2023/03/23 09:46:42;;;;;;;3.35;2.30;;;15.90;99.90;;;14.55;77.69;99823.31;4839591;29;22349;-81
2023/03/23 09:53:35;;;;;;;8.05;2.80;;;15.50;99.90;;;14.16;79.17;99820.09;4923628;28;20037;-81
2023/03/23 09:56:32;;;;;;;6.57;3.03;;;;;;;14.18;79.67;99810.25;4866618;29;20047;-81
2023/03/23 09:59:44;;;;;;;6.90;2.92;;;15.40;99.90;;;14.13;80.23;99800.00;4936482;28;20128;-81
2023/03/23 10:03:05;;;;;;;;;;;;;;;;;;;;;
2023/03/23 10:05:42;;;;;;;6.15;2.72;;;;;;;14.71;78.68;99810.59;4964822;22;20599;-80
2023/03/23 10:08:21;;;;;;;4.80;2.40;;;;;;;15.15;78.17;99808.00;4978881;28;20033;-80
2023/03/23 10:11:42;;;;;;;5.95;2.67;;;16.00;99.90;;;15.30;76.39;99805.94;4961139;28;20036;-80
2023/03/23 10:14:35;;;;;;;6.78;2.55;;;16.10;99.90;;;15.22;75.92;99805.72;4958437;28;20037;-81
2023/03/23 10:17:42;;;;;;;4.60;2.47;;;16.20;99.90;;;15.36;76.14;99810.75;4973410;28;20197;-80
2023/03/23 10:20:47;;;;;;;6.25;2.55;;;16.20;99.90;;;15.24;74.81;99801.97;5002040;28;20039;-81
2023/03/23 10:23:53;;;;;;;8.70;2.38;;;16.20;99.90;;;15.04;75.49;99800.09;4979151;28;20033;-81
2023/03/23 10:26:46;;;;;;;5.13;2.58;;;16.10;99.90;;;15.10;76.23;99800.44;4980533;28;20659;-81
2023/03/23 10:29:47;;;;;;;9.32;2.40;;;16.00;99.90;;;14.85;75.81;99796.25;5005184;28;20505;-80
2023/03/23 10:32:47;;;;;;;7.47;2.53;;;16.10;99.90;;;15.09;76.99;99792.59;4999481;28;20042;-81
2023/03/23 10:36:03;;;;;;;6.82;2.40;;;16.10;99.90;;;15.30;74.85;99803.28;4958102;28;20122;-79
2023/03/23 10:38:44;;;;;;;3.85;2.05;;;;;;;15.64;74.52;99798.72;4906572;28;20042;-81
2023/03/23 10:42:06;;;;;;;;;;;;;;;;;;;;;
2023/03/23 10:44:45;;;;;;;4.28;2.20;;;16.40;99.90;;;15.43;73.42;99805.78;4857390;23;20333;-80
2023/03/23 10:50:23;;;;;;;5.35;2.40;;;16.30;99.90;;;15.24;74.01;99793.16;5009532;28;20045;-79
2023/03/23 10:53:20;;;;;;;4.47;2.20;;;;;;;15.26;74.02;99799.19;4955170;28;20153;-80
2023/03/23 10:55:59;;;;;;;3.80;2.45;;;16.20;99.90;;;15.31;73.98;99797.88;4957861;28;20160;-80
2023/03/23 10:58:31;;;;;;;4.50;2.03;;;16.20;99.90;;;15.25;73.33;99793.06;5000800;28;20037;-80
2023/03/23 11:01:03;;;;;;;4.18;2.03;;;16.30;99.90;;;15.42;73.72;99797.00;4998649;28;20097;-80
2023/03/23 11:03:54;;;;;;;3.25;1.75;;;16.40;99.90;;;15.53;72.91;99807.56;5021396;28;20055;-80
2023/03/23 11:07:01;;;;;;;6.05;1.80;;;16.40;99.90;;;15.59;72.01;99803.53;4948262;23;20445;-80
2023/03/23 11:10:07;;;;;;;7.50;2.07;;;16.40;99.90;;;15.41;71.39;99805.06;4974002;28;20067;-80
2023/03/23 11:12:46;;;;;;;6.82;2.10;;;16.40;99.90;;;15.34;72.45;99810.03;5027835;28;20283;-78
2023/03/23 11:15:34;;;;;;;3.85;1.98;;;16.40;99.90;;;15.37;73.18;99815.06;5008466;28;20036;-79
2023/03/23 11:18:26;;;;;;;4.38;2.00;;;16.30;99.90;;;15.28;73.60;99807.88;5049193;28;20057;-80
2023/03/23 11:21:23;;;;;;;3.80;2.00;;;16.30;99.90;;;14.92;73.04;99804.53;5003483;28;21164;-79
2023/03/23 11:24:02;;;;;;;8.50;2.00;;;;;;;14.79;73.43;99817.91;5038417;28;20038;-80
2023/03/23 11:26:43;;;;;;;4.10;1.85;;;15.90;99.90;;;14.72;74.11;99814.06;5000149;28;20174;-80
2023/03/23 11:29:25;;;;;;;4.15;2.00;;;15.80;99.90;;;14.74;74.48;99810.34;5021637;28;20033;-79
2023/03/23 11:31:59;;;;;;;7.72;1.90;;;15.80;99.90;;;14.54;74.26;99821.63;5000349;28;20037;-80
2023/03/23 11:34:44;;;;;;;4.13;1.85;;;15.70;99.90;;;14.39;74.54;99815.69;5005610;28;20033;-79
2023/03/23 11:37:33;;;;;;;3.92;2.03;;;15.60;99.90;;;14.43;74.78;99817.16;5005940;28;20037;-80
2023/03/23 11:40:22;;;;;;;5.00;1.88;;;15.60;99.90;;;14.47;75.44;99815.09;5023872;28;20064;-81
2023/03/23 11:43:13;;;;;;;4.63;1.83;;;15.60;99.90;;;14.72;74.61;99814.91;4972059;28;20159;-80
2023/03/23 11:46:26;;;;;;;6.10;2.15;;;15.80;99.90;;;15.04;73.49;99829.25;4983923;22;20038;-80
2023/03/23 11:49:35;;;;;;;7.28;2.13;;;15.90;99.90;;;15.05;73.18;99831.75;4979193;28;20041;-78
2023/03/23 11:52:23;;;;;;;5.57;1.92;;;15.90;99.90;;;14.72;73.47;99827.31;5001128;28;20048;-80
2023/03/23 11:55:14;;;;;;;9.93;2.22;;;15.80;99.90;;;14.44;74.26;99845.31;5017056;28;20067;-81
2023/03/23 11:57:41;;;;;;;4.10;2.10;;;15.60;99.90;;;14.25;75.63;99845.03;4980670;28;20113;-79
2023/03/23 12:00:34;;;;;;;9.15;1.90;;;15.40;99.90;;;14.16;76.22;99855.34;5015920;28;20094;-79
2023/03/23 12:03:25;;;;;;;3.05;0.90;;;15.30;99.90;;;13.66;75.33;99854.69;5004541;28;20033;-81
2023/03/23 12:06:13;;;;;;;0.47;0.22;;;14.60;99.90;;;13.03;74.96;99853.06;5008610;28;20045;-79
2023/03/23 12:08:58;;;;;;;0.40;0.40;;;14.20;99.90;;;12.63;77.17;99864.56;5026322;28;20504;-79
2023/03/23 12:12:15;;;;;;;1.58;0.45;;;14.00;99.90;;;12.69;78.19;99842.19;5027209;28;20030;-79
2023/03/23 12:15:20;;;;;;;3.03;0.90;;;14.00;99.90;;;13.09;78.64;99847.34;5017931;28;20017;-79
2023/03/23 12:18:30;;;;;;;1.88;0.90;;;14.30;99.90;;;13.54;78.77;99848.50;5002949;28;20033;-79
2023/03/23 12:21:07;;;;;;;2.58;1.20;;;14.60;99.90;;;13.80;78.06;99850.16;5010914;28;20414;-79
2023/03/23 12:23:52;;;;;;;5.55;1.70;;;14.70;99.90;;;13.88;76.88;99855.75;5017896;28;20370;-80
2023/03/23 12:27:03;;;;;;;3.90;1.30;;;14.80;99.90;;;13.81;76.13;99831.53;5020104;28;20056;-79
2023/03/23 12:30:19;;;;;;;5.45;1.50;;;14.90;99.90;;;13.88;76.23;99826.63;4963257;28;20516;-81
2023/03/23 12:32:52;;;;;;;4.95;1.70;;;15.00;99.90;;;14.19;76.50;99840.19;4979730;28;20514;-79
2023/03/23 12:35:32;;;;;;;3.88;1.70;;;15.30;99.90;;;14.76;77.17;99845.50;4999730;28;20048;-81
2023/03/23 12:38:41;;;;;;;6.10;1.80;;;15.60;99.90;;;15.07;74.71;99839.59;5011116;28;20066;-80
2023/03/23 12:41:53;;;;;;;6.20;1.88;;;15.90;99.90;;;15.26;73.73;99841.63;5018620;28;20067;-80
2023/03/23 12:44:33;;;;;;;3.58;1.58;;;16.10;99.90;;;15.41;73.90;99852.81;4994095;28;20057;-81
2023/03/23 12:47:13;;;;;;;4.05;1.45;;;16.20;99.90;;;15.34;72.90;99845.34;4981505;28;20037;-81
2023/03/23 12:50:13;;;;;;;6.45;1.80;;;16.40;99.90;;;15.46;72.02;99853.28;4926795;28;20059;-80
2023/03/23 12:53:06;;;;;;;4.22;1.40;;;16.40;99.90;;;15.43;71.61;99851.72;4996525;28;20501;-80
2023/03/23 12:56:02;;;;;;;8.68;1.98;;;16.40;99.90;;;15.15;71.54;99843.31;5002622;28;20681;-80
2023/03/23 12:58:32;;;;;;;5.43;1.45;;;16.30;99.90;;;15.25;71.23;99859.34;4972800;28;20502;-81
2023/03/23 13:01:29;;;;;;;9.02;1.83;;;16.20;99.90;;;15.13;70.76;99847.06;4944519;28;20393;-81
2023/03/23 13:04:20;;;;;;;8.03;1.77;;;16.20;99.90;;;15.25;70.97;99864.66;4976541;28;20742;-79
2023/03/23 13:06:48;;;;;;;5.70;1.95;;;16.20;99.90;;;15.12;70.62;99856.84;4983533;28;20286;-80